sensor_id;sensor_type;location;lat;lon;timestamp;temperature;humidity
30865;DHT22;17574;49.418;11.038;2022-08-03T00:01:38;20.10;17.10
30865;DHT22;17574;49.418;11.038;2022-08-03T00:04:05;20.00;17.50
30865;DHT22;17574;49.418;11.038;2022-08-03T00:06:33;20.00;17.50
30865;DHT22;17574;49.418;11.038;2022-08-03T00:09:03;19.90;17.40
30865;DHT22;17574;49.418;11.038;2022-08-03T00:11:30;19.90;18.60
30865;DHT22;17574;49.418;11.038;2022-08-03T00:13:56;19.80;20.00
30865;DHT22;17574;49.418;11.038;2022-08-03T00:16:23;19.80;19.80
30865;DHT22;17574;49.418;11.038;2022-08-03T00:18:51;19.70;20.50
30865;DHT22;17574;49.418;11.038;2022-08-03T00:21:18;19.70;22.00
30865;DHT22;17574;49.418;11.038;2022-08-03T00:23:44;19.60;21.30
30865;DHT22;17574;49.418;11.038;2022-08-03T00:26:21;19.60;21.90
30865;DHT22;17574;49.418;11.038;2022-08-03T00:28:48;19.60;21.10
30865;DHT22;17574;49.418;11.038;2022-08-03T00:31:15;19.50;20.60
30865;DHT22;17574;49.418;11.038;2022-08-03T00:33:41;19.40;20.70
30865;DHT22;17574;49.418;11.038;2022-08-03T00:36:25;19.40;21.70
30865;DHT22;17574;49.418;11.038;2022-08-03T00:38:52;19.40;23.00
30865;DHT22;17574;49.418;11.038;2022-08-03T00:41:18;19.40;23.50
30865;DHT22;17574;49.418;11.038;2022-08-03T00:43:45;19.40;23.70
30865;DHT22;17574;49.418;11.038;2022-08-03T00:46:12;19.30;23.10
30865;DHT22;17574;49.418;11.038;2022-08-03T00:48:47;19.30;25.10
30865;DHT22;17574;49.418;11.038;2022-08-03T00:51:14;19.30;24.80
30865;DHT22;17574;49.418;11.038;2022-08-03T00:53:41;19.20;25.50
30865;DHT22;17574;49.418;11.038;2022-08-03T00:56:07;19.20;26.20
30865;DHT22;17574;49.418;11.038;2022-08-03T00:58:34;19.20;26.20
30865;DHT22;17574;49.418;11.038;2022-08-03T01:01:01;19.20;26.20
30865;DHT22;17574;49.418;11.038;2022-08-03T01:03:29;19.10;27.20
30865;DHT22;17574;49.418;11.038;2022-08-03T01:06:03;19.00;26.40
30865;DHT22;17574;49.418;11.038;2022-08-03T01:08:38;19.00;26.60
30865;DHT22;17574;49.418;11.038;2022-08-03T01:11:14;19.00;28.60
30865;DHT22;17574;49.418;11.038;2022-08-03T01:16:37;18.90;29.70
30865;DHT22;17574;49.418;11.038;2022-08-03T01:19:12;18.90;28.50
30865;DHT22;17574;49.418;11.038;2022-08-03T01:21:56;18.90;27.50
30865;DHT22;17574;49.418;11.038;2022-08-03T01:35:15;18.70;27.90
30865;DHT22;17574;49.418;11.038;2022-08-03T01:37:44;18.70;27.30
30865;DHT22;17574;49.418;11.038;2022-08-03T01:40:13;18.60;29.20
30865;DHT22;17574;49.418;11.038;2022-08-03T01:42:40;18.60;29.10
30865;DHT22;17574;49.418;11.038;2022-08-03T01:45:08;18.60;29.00
30865;DHT22;17574;49.418;11.038;2022-08-03T01:47:36;18.60;28.70
30865;DHT22;17574;49.418;11.038;2022-08-03T01:50:03;18.60;28.40
30865;DHT22;17574;49.418;11.038;2022-08-03T01:52:31;18.50;29.30
30865;DHT22;17574;49.418;11.038;2022-08-03T01:54:58;18.50;30.20
30865;DHT22;17574;49.418;11.038;2022-08-03T01:57:26;18.50;31.50
30865;DHT22;17574;49.418;11.038;2022-08-03T01:59:54;18.50;30.90
30865;DHT22;17574;49.418;11.038;2022-08-03T02:02:21;18.40;30.10
30865;DHT22;17574;49.418;11.038;2022-08-03T02:04:59;18.40;32.40
30865;DHT22;17574;49.418;11.038;2022-08-03T02:07:26;18.30;33.00
30865;DHT22;17574;49.418;11.038;2022-08-03T02:09:54;18.30;30.00
30865;DHT22;17574;49.418;11.038;2022-08-03T02:12:23;18.30;30.00
30865;DHT22;17574;49.418;11.038;2022-08-03T02:14:50;18.30;31.70
30865;DHT22;17574;49.418;11.038;2022-08-03T02:17:17;18.30;32.70
30865;DHT22;17574;49.418;11.038;2022-08-03T02:20:04;18.30;32.30
30865;DHT22;17574;49.418;11.038;2022-08-03T02:22:32;18.20;31.30
30865;DHT22;17574;49.418;11.038;2022-08-03T02:24:58;18.20;31.70
30865;DHT22;17574;49.418;11.038;2022-08-03T02:27:25;18.20;32.30
30865;DHT22;17574;49.418;11.038;2022-08-03T02:29:57;18.10;33.00
30865;DHT22;17574;49.418;11.038;2022-08-03T02:32:30;18.10;33.60
30865;DHT22;17574;49.418;11.038;2022-08-03T02:34:58;18.00;33.60
30865;DHT22;17574;49.418;11.038;2022-08-03T02:37:26;18.10;35.60
30865;DHT22;17574;49.418;11.038;2022-08-03T02:39:59;18.10;35.60
30865;DHT22;17574;49.418;11.038;2022-08-03T02:42:27;18.00;35.50
30865;DHT22;17574;49.418;11.038;2022-08-03T02:44:55;18.00;35.50
30865;DHT22;17574;49.418;11.038;2022-08-03T02:47:22;17.90;35.40
30865;DHT22;17574;49.418;11.038;2022-08-03T02:49:50;18.00;35.50
30865;DHT22;17574;49.418;11.038;2022-08-03T02:54:46;17.90;35.40
30865;DHT22;17574;49.418;11.038;2022-08-03T02:57:14;17.90;35.40
30865;DHT22;17574;49.418;11.038;2022-08-03T02:59:41;17.90;39.00
30865;DHT22;17574;49.418;11.038;2022-08-03T03:02:09;17.80;38.80
30865;DHT22;17574;49.418;11.038;2022-08-03T03:04:36;17.80;39.10
30865;DHT22;17574;49.418;11.038;2022-08-03T03:07:24;17.70;38.00
30865;DHT22;17574;49.418;11.038;2022-08-03T03:09:54;17.70;37.80
30865;DHT22;17574;49.418;11.038;2022-08-03T03:12:20;17.70;38.10
30865;DHT22;17574;49.418;11.038;2022-08-03T03:14:47;17.60;38.50
30865;DHT22;17574;49.418;11.038;2022-08-03T03:17:14;17.60;39.40
30865;DHT22;17574;49.418;11.038;2022-08-03T03:19:43;17.60;39.60
30865;DHT22;17574;49.418;11.038;2022-08-03T03:22:11;17.60;40.30
30865;DHT22;17574;49.418;11.038;2022-08-03T03:24:38;17.60;41.00
30865;DHT22;17574;49.418;11.038;2022-08-03T03:27:05;17.60;39.70
30865;DHT22;17574;49.418;11.038;2022-08-03T03:29:31;17.50;38.90
30865;DHT22;17574;49.418;11.038;2022-08-03T03:32:05;17.50;38.50
30865;DHT22;17574;49.418;11.038;2022-08-03T03:34:34;17.50;39.70
30865;DHT22;17574;49.418;11.038;2022-08-03T03:37:01;17.50;39.20
30865;DHT22;17574;49.418;11.038;2022-08-03T03:39:30;17.50;38.10
30865;DHT22;17574;49.418;11.038;2022-08-03T03:41:57;17.50;38.10
30865;DHT22;17574;49.418;11.038;2022-08-03T03:44:29;17.40;37.40
30865;DHT22;17574;49.418;11.038;2022-08-03T03:46:56;17.40;37.30
30865;DHT22;17574;49.418;11.038;2022-08-03T03:49:23;17.40;37.80
30865;DHT22;17574;49.418;11.038;2022-08-03T03:51:53;17.40;38.80
30865;DHT22;17574;49.418;11.038;2022-08-03T03:54:20;17.40;39.50
30865;DHT22;17574;49.418;11.038;2022-08-03T03:56:47;17.30;38.40
30865;DHT22;17574;49.418;11.038;2022-08-03T03:59:13;17.30;38.80
30865;DHT22;17574;49.418;11.038;2022-08-03T04:01:40;17.30;38.00
30865;DHT22;17574;49.418;11.038;2022-08-03T04:04:07;17.30;38.10
30865;DHT22;17574;49.418;11.038;2022-08-03T04:06:52;17.30;39.50
30865;DHT22;17574;49.418;11.038;2022-08-03T04:09:37;17.30;40.30
30865;DHT22;17574;49.418;11.038;2022-08-03T04:12:33;17.30;39.40
30865;DHT22;17574;49.418;11.038;2022-08-03T04:15:01;17.30;39.90
30865;DHT22;17574;49.418;11.038;2022-08-03T04:17:28;17.30;40.40
30865;DHT22;17574;49.418;11.038;2022-08-03T04:19:56;17.30;41.50
30865;DHT22;17574;49.418;11.038;2022-08-03T04:22:24;17.30;40.50
30865;DHT22;17574;49.418;11.038;2022-08-03T04:25:02;17.30;40.50
30865;DHT22;17574;49.418;11.038;2022-08-03T04:27:39;17.30;41.30
30865;DHT22;17574;49.418;11.038;2022-08-03T04:30:06;17.30;40.70
30865;DHT22;17574;49.418;11.038;2022-08-03T04:32:34;17.40;40.90
30865;DHT22;17574;49.418;11.038;2022-08-03T04:35:01;17.40;40.40
30865;DHT22;17574;49.418;11.038;2022-08-03T04:37:32;17.40;39.60
30865;DHT22;17574;49.418;11.038;2022-08-03T04:40:00;17.40;40.60
30865;DHT22;17574;49.418;11.038;2022-08-03T04:42:27;17.40;40.60
30865;DHT22;17574;49.418;11.038;2022-08-03T04:44:57;17.40;40.60
30865;DHT22;17574;49.418;11.038;2022-08-03T04:47:27;17.50;40.70
30865;DHT22;17574;49.418;11.038;2022-08-03T04:49:54;17.50;39.20
30865;DHT22;17574;49.418;11.038;2022-08-03T04:52:21;17.50;40.70
30865;DHT22;17574;49.418;11.038;2022-08-03T04:54:47;17.60;39.80
30865;DHT22;17574;49.418;11.038;2022-08-03T04:57:16;17.60;38.50
30865;DHT22;17574;49.418;11.038;2022-08-03T04:59:52;17.70;38.60
30865;DHT22;17574;49.418;11.038;2022-08-03T05:02:28;17.70;38.10
30865;DHT22;17574;49.418;11.038;2022-08-03T05:04:56;17.80;36.40
30865;DHT22;17574;49.418;11.038;2022-08-03T05:07:22;17.80;36.70
30865;DHT22;17574;49.418;11.038;2022-08-03T05:09:50;17.80;36.70
30865;DHT22;17574;49.418;11.038;2022-08-03T05:12:28;17.90;35.40
30865;DHT22;17574;49.418;11.038;2022-08-03T05:14:58;18.00;35.50
30865;DHT22;17574;49.418;11.038;2022-08-03T05:17:25;18.00;35.50
30865;DHT22;17574;49.418;11.038;2022-08-03T05:19:52;18.00;35.50
30865;DHT22;17574;49.418;11.038;2022-08-03T05:22:21;18.10;34.20
30865;DHT22;17574;49.418;11.038;2022-08-03T05:24:47;18.10;33.70
30865;DHT22;17574;49.418;11.038;2022-08-03T05:27:14;18.20;34.20
30865;DHT22;17574;49.418;11.038;2022-08-03T05:29:48;18.30;34.00
30865;DHT22;17574;49.418;11.038;2022-08-03T05:32:15;18.40;33.20
30865;DHT22;17574;49.418;11.038;2022-08-03T05:34:42;18.50;32.50
30865;DHT22;17574;49.418;11.038;2022-08-03T05:37:09;18.60;28.60
30865;DHT22;17574;49.418;11.038;2022-08-03T05:39:35;18.70;28.00
30865;DHT22;17574;49.418;11.038;2022-08-03T05:42:03;18.90;29.20
30865;DHT22;17574;49.418;11.038;2022-08-03T05:44:30;19.00;28.80
30865;DHT22;17574;49.418;11.038;2022-08-03T05:46:57;19.20;27.10
30865;DHT22;17574;49.418;11.038;2022-08-03T05:49:24;19.40;26.40
30865;DHT22;17574;49.418;11.038;2022-08-03T05:51:51;19.60;26.50
30865;DHT22;17574;49.418;11.038;2022-08-03T05:54:38;19.90;25.30
30865;DHT22;17574;49.418;11.038;2022-08-03T05:57:22;20.30;19.80
30865;DHT22;17574;49.418;11.038;2022-08-03T05:59:49;20.60;17.90
30865;DHT22;17574;49.418;11.038;2022-08-03T06:02:26;20.80;16.00
30865;DHT22;17574;49.418;11.038;2022-08-03T06:04:53;21.10;13.50
30865;DHT22;17574;49.418;11.038;2022-08-03T06:07:20;21.50;13.80
30865;DHT22;17574;49.418;11.038;2022-08-03T06:09:46;21.90;11.20
30865;DHT22;17574;49.418;11.038;2022-08-03T06:12:33;22.20;10.60
30865;DHT22;17574;49.418;11.038;2022-08-03T06:15:02;22.50;4.60
30865;DHT22;17574;49.418;11.038;2022-08-03T06:17:29;22.60;2.80
30865;DHT22;17574;49.418;11.038;2022-08-03T06:20:03;22.80;1.90
30865;DHT22;17574;49.418;11.038;2022-08-03T06:22:30;23.10;2.00
30865;DHT22;17574;49.418;11.038;2022-08-03T06:24:57;23.50;1.00
30865;DHT22;17574;49.418;11.038;2022-08-03T06:27:29;23.60;1.00
30865;DHT22;17574;49.418;11.038;2022-08-03T06:30:03;23.80;1.00
30865;DHT22;17574;49.418;11.038;2022-08-03T06:32:30;23.90;1.00
30865;DHT22;17574;49.418;11.038;2022-08-03T06:34:56;24.10;1.00
30865;DHT22;17574;49.418;11.038;2022-08-03T06:37:23;24.20;1.00
30865;DHT22;17574;49.418;11.038;2022-08-03T06:39:49;24.40;1.00
30865;DHT22;17574;49.418;11.038;2022-08-03T06:42:16;24.70;1.00
30865;DHT22;17574;49.418;11.038;2022-08-03T06:44:46;25.20;1.00
30865;DHT22;17574;49.418;11.038;2022-08-03T06:47:12;25.70;1.00
30865;DHT22;17574;49.418;11.038;2022-08-03T06:49:39;26.00;1.00
30865;DHT22;17574;49.418;11.038;2022-08-03T06:52:07;26.30;1.00
30865;DHT22;17574;49.418;11.038;2022-08-03T06:54:34;26.60;1.00
30865;DHT22;17574;49.418;11.038;2022-08-03T06:57:01;26.90;1.00
30865;DHT22;17574;49.418;11.038;2022-08-03T06:59:27;27.50;1.00
30865;DHT22;17574;49.418;11.038;2022-08-03T07:02:14;28.20;1.00
30865;DHT22;17574;49.418;11.038;2022-08-03T07:04:46;28.90;1.00
30865;DHT22;17574;49.418;11.038;2022-08-03T07:07:12;29.20;1.00
30865;DHT22;17574;49.418;11.038;2022-08-03T07:09:39;30.00;1.00
30865;DHT22;17574;49.418;11.038;2022-08-03T07:12:07;30.50;1.00
30865;DHT22;17574;49.418;11.038;2022-08-03T07:14:33;31.00;1.00
30865;DHT22;17574;49.418;11.038;2022-08-03T07:17:00;31.70;1.00
30865;DHT22;17574;49.418;11.038;2022-08-03T07:19:36;32.10;1.00
30865;DHT22;17574;49.418;11.038;2022-08-03T07:22:03;32.70;1.00
30865;DHT22;17574;49.418;11.038;2022-08-03T07:24:30;33.10;1.00
30865;DHT22;17574;49.418;11.038;2022-08-03T07:26:56;33.30;1.00
30865;DHT22;17574;49.418;11.038;2022-08-03T07:29:23;33.50;1.00
30865;DHT22;17574;49.418;11.038;2022-08-03T07:31:50;33.70;1.00
30865;DHT22;17574;49.418;11.038;2022-08-03T07:34:17;33.90;1.00
30865;DHT22;17574;49.418;11.038;2022-08-03T07:36:43;34.10;1.00
30865;DHT22;17574;49.418;11.038;2022-08-03T07:39:10;34.10;1.00
30865;DHT22;17574;49.418;11.038;2022-08-03T07:41:44;34.30;1.00
30865;DHT22;17574;49.418;11.038;2022-08-03T07:44:10;34.30;1.00
30865;DHT22;17574;49.418;11.038;2022-08-03T07:46:37;34.30;1.00
30865;DHT22;17574;49.418;11.038;2022-08-03T07:49:04;34.00;1.00
30865;DHT22;17574;49.418;11.038;2022-08-03T07:51:30;34.20;1.00
30865;DHT22;17574;49.418;11.038;2022-08-03T07:53:57;34.10;1.00
30865;DHT22;17574;49.418;11.038;2022-08-03T07:56:24;34.20;1.00
30865;DHT22;17574;49.418;11.038;2022-08-03T07:58:51;34.10;1.00
30865;DHT22;17574;49.418;11.038;2022-08-03T08:01:18;34.30;1.00
30865;DHT22;17574;49.418;11.038;2022-08-03T08:03:45;34.80;1.00
30865;DHT22;17574;49.418;11.038;2022-08-03T08:06:19;34.90;1.00
30865;DHT22;17574;49.418;11.038;2022-08-03T08:08:46;35.20;1.00
30865;DHT22;17574;49.418;11.038;2022-08-03T08:11:12;35.30;1.00
30865;DHT22;17574;49.418;11.038;2022-08-03T08:13:39;35.60;1.00
30865;DHT22;17574;49.418;11.038;2022-08-03T08:16:05;36.10;1.00
30865;DHT22;17574;49.418;11.038;2022-08-03T08:18:32;35.50;1.00
30865;DHT22;17574;49.418;11.038;2022-08-03T08:20:59;35.00;1.00
30865;DHT22;17574;49.418;11.038;2022-08-03T08:23:28;34.30;1.00
30865;DHT22;17574;49.418;11.038;2022-08-03T08:26:09;34.10;1.00
30865;DHT22;17574;49.418;11.038;2022-08-03T08:28:35;34.00;1.00
30865;DHT22;17574;49.418;11.038;2022-08-03T08:31:02;33.90;1.00
30865;DHT22;17574;49.418;11.038;2022-08-03T08:33:29;33.70;1.00
30865;DHT22;17574;49.418;11.038;2022-08-03T08:36:15;33.30;1.00
30865;DHT22;17574;49.418;11.038;2022-08-03T08:38:42;32.80;1.00
30865;DHT22;17574;49.418;11.038;2022-08-03T08:41:10;32.70;1.00
30865;DHT22;17574;49.418;11.038;2022-08-03T08:43:38;32.80;1.00
30865;DHT22;17574;49.418;11.038;2022-08-03T08:46:04;32.80;1.00
30865;DHT22;17574;49.418;11.038;2022-08-03T08:48:34;32.80;1.00
30865;DHT22;17574;49.418;11.038;2022-08-03T08:51:01;32.80;1.00
30865;DHT22;17574;49.418;11.038;2022-08-03T08:53:28;32.70;1.00
30865;DHT22;17574;49.418;11.038;2022-08-03T08:55:58;32.90;1.00
30865;DHT22;17574;49.418;11.038;2022-08-03T08:58:33;33.10;1.00
30865;DHT22;17574;49.418;11.038;2022-08-03T09:01:00;33.30;1.00
30865;DHT22;17574;49.418;11.038;2022-08-03T09:03:27;33.40;1.00
30865;DHT22;17574;49.418;11.038;2022-08-03T09:05:56;33.50;1.00
30865;DHT22;17574;49.418;11.038;2022-08-03T09:08:23;33.70;1.00
30865;DHT22;17574;49.418;11.038;2022-08-03T09:10:50;33.70;1.00
30865;DHT22;17574;49.418;11.038;2022-08-03T09:13:16;33.90;1.00
30865;DHT22;17574;49.418;11.038;2022-08-03T09:15:43;33.90;1.00
30865;DHT22;17574;49.418;11.038;2022-08-03T09:18:27;33.80;1.00
30865;DHT22;17574;49.418;11.038;2022-08-03T09:23:57;33.70;1.00
30865;DHT22;17574;49.418;11.038;2022-08-03T09:26:29;33.70;1.00
30865;DHT22;17574;49.418;11.038;2022-08-03T09:29:00;33.60;1.00
30865;DHT22;17574;49.418;11.038;2022-08-03T09:31:37;33.80;1.00
30865;DHT22;17574;49.418;11.038;2022-08-03T09:34:09;34.00;1.00
30865;DHT22;17574;49.418;11.038;2022-08-03T09:36:57;34.30;1.00
30865;DHT22;17574;49.418;11.038;2022-08-03T09:39:26;34.10;1.00
30865;DHT22;17574;49.418;11.038;2022-08-03T09:42:08;34.20;1.00
30865;DHT22;17574;49.418;11.038;2022-08-03T09:47:02;34.40;1.00
30865;DHT22;17574;49.418;11.038;2022-08-03T09:49:29;34.30;1.00
30865;DHT22;17574;49.418;11.038;2022-08-03T09:51:56;34.40;1.00
30865;DHT22;17574;49.418;11.038;2022-08-03T09:54:51;34.70;1.00
30865;DHT22;17574;49.418;11.038;2022-08-03T09:57:19;34.90;1.00
30865;DHT22;17574;49.418;11.038;2022-08-03T09:59:46;34.90;1.00
30865;DHT22;17574;49.418;11.038;2022-08-03T10:02:26;35.20;1.00
30865;DHT22;17574;49.418;11.038;2022-08-03T10:04:53;35.20;1.00
30865;DHT22;17574;49.418;11.038;2022-08-03T10:07:20;35.20;1.00
30865;DHT22;17574;49.418;11.038;2022-08-03T10:09:54;35.30;1.00
30865;DHT22;17574;49.418;11.038;2022-08-03T10:12:20;35.40;1.00
30865;DHT22;17574;49.418;11.038;2022-08-03T10:14:47;35.60;1.00
30865;DHT22;17574;49.418;11.038;2022-08-03T10:17:14;35.60;1.00
30865;DHT22;17574;49.418;11.038;2022-08-03T10:19:41;35.60;1.00
30865;DHT22;17574;49.418;11.038;2022-08-03T10:22:15;35.70;1.00
30865;DHT22;17574;49.418;11.038;2022-08-03T10:24:54;35.80;1.00
30865;DHT22;17574;49.418;11.038;2022-08-03T10:27:21;36.00;1.00
30865;DHT22;17574;49.418;11.038;2022-08-03T10:29:50;36.10;1.00
30865;DHT22;17574;49.418;11.038;2022-08-03T10:32:20;36.20;1.00
30865;DHT22;17574;49.418;11.038;2022-08-03T10:34:48;36.40;1.00
30865;DHT22;17574;49.418;11.038;2022-08-03T10:37:25;36.40;1.00
30865;DHT22;17574;49.418;11.038;2022-08-03T10:39:54;36.40;1.00
30865;DHT22;17574;49.418;11.038;2022-08-03T10:42:23;36.40;1.00
30865;DHT22;17574;49.418;11.038;2022-08-03T10:44:59;36.40;1.00
30865;DHT22;17574;49.418;11.038;2022-08-03T10:47:28;36.40;1.00
30865;DHT22;17574;49.418;11.038;2022-08-03T10:49:55;36.30;1.00
30865;DHT22;17574;49.418;11.038;2022-08-03T10:52:22;36.30;1.00
30865;DHT22;17574;49.418;11.038;2022-08-03T10:55:19;36.50;1.00
30865;DHT22;17574;49.418;11.038;2022-08-03T10:58:11;36.40;1.00
30865;DHT22;17574;49.418;11.038;2022-08-03T11:00:47;36.60;1.00
30865;DHT22;17574;49.418;11.038;2022-08-03T11:03:13;36.70;1.00
30865;DHT22;17574;49.418;11.038;2022-08-03T11:05:41;36.70;1.00
30865;DHT22;17574;49.418;11.038;2022-08-03T11:10:47;36.90;1.00
30865;DHT22;17574;49.418;11.038;2022-08-03T11:13:14;37.00;1.00
30865;DHT22;17574;49.418;11.038;2022-08-03T11:15:43;37.20;1.00
30865;DHT22;17574;49.418;11.038;2022-08-03T11:18:11;37.30;1.00
30865;DHT22;17574;49.418;11.038;2022-08-03T11:23:11;37.40;1.00
30865;DHT22;17574;49.418;11.038;2022-08-03T11:28:26;37.50;1.00
30865;DHT22;17574;49.418;11.038;2022-08-03T11:30:53;37.40;1.00
30865;DHT22;17574;49.418;11.038;2022-08-03T11:33:29;37.40;1.00
30865;DHT22;17574;49.418;11.038;2022-08-03T11:35:57;37.50;1.00
30865;DHT22;17574;49.418;11.038;2022-08-03T11:38:25;37.70;1.00
30865;DHT22;17574;49.418;11.038;2022-08-03T11:40:52;37.80;1.00
30865;DHT22;17574;49.418;11.038;2022-08-03T11:48:24;38.00;1.00
30865;DHT22;17574;49.418;11.038;2022-08-03T11:50:52;37.90;1.00
30865;DHT22;17574;49.418;11.038;2022-08-03T11:53:18;37.90;1.00
30865;DHT22;17574;49.418;11.038;2022-08-03T11:55:46;38.10;1.00
30865;DHT22;17574;49.418;11.038;2022-08-03T11:58:16;38.10;1.00
30865;DHT22;17574;49.418;11.038;2022-08-03T12:01:06;38.10;1.00
30865;DHT22;17574;49.418;11.038;2022-08-03T12:03:33;38.00;1.00
30865;DHT22;17574;49.418;11.038;2022-08-03T12:06:00;38.20;1.00
30865;DHT22;17574;49.418;11.038;2022-08-03T12:08:30;38.20;1.00
30865;DHT22;17574;49.418;11.038;2022-08-03T12:10:58;38.40;1.00
30865;DHT22;17574;49.418;11.038;2022-08-03T12:13:25;38.50;1.00
30865;DHT22;17574;49.418;11.038;2022-08-03T12:16:22;38.60;1.00
30865;DHT22;17574;49.418;11.038;2022-08-03T12:21:21;38.40;1.00
30865;DHT22;17574;49.418;11.038;2022-08-03T12:23:50;38.60;1.00
30865;DHT22;17574;49.418;11.038;2022-08-03T12:26:16;38.40;1.00
30865;DHT22;17574;49.418;11.038;2022-08-03T12:28:47;38.40;1.00
30865;DHT22;17574;49.418;11.038;2022-08-03T12:31:15;38.50;1.00
30865;DHT22;17574;49.418;11.038;2022-08-03T12:36:21;38.60;1.00
30865;DHT22;17574;49.418;11.038;2022-08-03T12:39:01;38.30;1.00
30865;DHT22;17574;49.418;11.038;2022-08-03T12:41:29;38.40;1.00
30865;DHT22;17574;49.418;11.038;2022-08-03T12:43:56;38.40;1.00
30865;DHT22;17574;49.418;11.038;2022-08-03T12:46:27;38.20;1.00
30865;DHT22;17574;49.418;11.038;2022-08-03T12:48:58;38.20;1.00
30865;DHT22;17574;49.418;11.038;2022-08-03T12:51:26;38.10;1.00
30865;DHT22;17574;49.418;11.038;2022-08-03T12:53:53;38.20;1.00
30865;DHT22;17574;49.418;11.038;2022-08-03T12:56:20;38.20;1.00
30865;DHT22;17574;49.418;11.038;2022-08-03T12:58:47;38.50;1.00
30865;DHT22;17574;49.418;11.038;2022-08-03T13:01:13;38.50;1.00
30865;DHT22;17574;49.418;11.038;2022-08-03T13:03:47;38.40;1.00
30865;DHT22;17574;49.418;11.038;2022-08-03T13:06:20;38.60;1.00
30865;DHT22;17574;49.418;11.038;2022-08-03T13:08:47;38.60;1.00
30865;DHT22;17574;49.418;11.038;2022-08-03T13:11:18;38.30;1.00
30865;DHT22;17574;49.418;11.038;2022-08-03T13:13:45;38.10;1.00
30865;DHT22;17574;49.418;11.038;2022-08-03T13:16:12;38.10;1.00
30865;DHT22;17574;49.418;11.038;2022-08-03T13:18:44;37.90;1.00
30865;DHT22;17574;49.418;11.038;2022-08-03T13:21:14;37.90;1.00
30865;DHT22;17574;49.418;11.038;2022-08-03T13:23:41;38.00;1.00
30865;DHT22;17574;49.418;11.038;2022-08-03T13:26:08;38.10;1.00
30865;DHT22;17574;49.418;11.038;2022-08-03T13:28:35;37.80;1.00
30865;DHT22;17574;49.418;11.038;2022-08-03T13:31:02;37.50;1.00
30865;DHT22;17574;49.418;11.038;2022-08-03T13:33:28;37.40;1.00
30865;DHT22;17574;49.418;11.038;2022-08-03T13:35:55;37.40;1.00
30865;DHT22;17574;49.418;11.038;2022-08-03T13:38:22;37.50;1.00
30865;DHT22;17574;49.418;11.038;2022-08-03T13:40:52;37.50;1.00
30865;DHT22;17574;49.418;11.038;2022-08-03T13:43:19;37.60;1.00
30865;DHT22;17574;49.418;11.038;2022-08-03T13:45:46;37.50;1.00
30865;DHT22;17574;49.418;11.038;2022-08-03T13:48:20;37.50;1.00
30865;DHT22;17574;49.418;11.038;2022-08-03T13:51:02;37.60;1.00
30865;DHT22;17574;49.418;11.038;2022-08-03T13:53:48;37.50;1.00
30865;DHT22;17574;49.418;11.038;2022-08-03T13:56:14;37.60;1.00
30865;DHT22;17574;49.418;11.038;2022-08-03T13:58:41;37.60;1.00
30865;DHT22;17574;49.418;11.038;2022-08-03T14:01:07;37.70;1.00
30865;DHT22;17574;49.418;11.038;2022-08-03T14:03:34;37.50;1.00
30865;DHT22;17574;49.418;11.038;2022-08-03T14:06:01;37.60;1.00
30865;DHT22;17574;49.418;11.038;2022-08-03T14:08:28;37.60;1.00
30865;DHT22;17574;49.418;11.038;2022-08-03T14:10:54;37.70;1.00
30865;DHT22;17574;49.418;11.038;2022-08-03T14:13:21;37.60;1.00
30865;DHT22;17574;49.418;11.038;2022-08-03T14:15:47;37.60;1.00
30865;DHT22;17574;49.418;11.038;2022-08-03T14:18:20;37.40;1.00
30865;DHT22;17574;49.418;11.038;2022-08-03T14:20:59;37.30;1.00
30865;DHT22;17574;49.418;11.038;2022-08-03T14:23:32;37.20;1.00
30865;DHT22;17574;49.418;11.038;2022-08-03T14:25:58;37.30;1.00
30865;DHT22;17574;49.418;11.038;2022-08-03T14:28:25;37.40;1.00
30865;DHT22;17574;49.418;11.038;2022-08-03T14:30:52;37.40;1.00
30865;DHT22;17574;49.418;11.038;2022-08-03T14:33:19;37.60;1.00
30865;DHT22;17574;49.418;11.038;2022-08-03T14:35:45;37.50;1.00
30865;DHT22;17574;49.418;11.038;2022-08-03T14:38:12;37.60;1.00
30865;DHT22;17574;49.418;11.038;2022-08-03T14:40:39;37.60;1.00
30865;DHT22;17574;49.418;11.038;2022-08-03T14:43:06;37.40;1.00
30865;DHT22;17574;49.418;11.038;2022-08-03T14:45:32;37.30;1.00
30865;DHT22;17574;49.418;11.038;2022-08-03T14:47:59;37.30;1.00
30865;DHT22;17574;49.418;11.038;2022-08-03T14:50:46;37.40;1.00
30865;DHT22;17574;49.418;11.038;2022-08-03T14:53:18;37.60;1.00
30865;DHT22;17574;49.418;11.038;2022-08-03T14:55:45;37.60;1.00
30865;DHT22;17574;49.418;11.038;2022-08-03T14:58:16;37.60;1.00
30865;DHT22;17574;49.418;11.038;2022-08-03T15:00:47;37.60;1.00
30865;DHT22;17574;49.418;11.038;2022-08-03T15:03:13;37.70;1.00
30865;DHT22;17574;49.418;11.038;2022-08-03T15:05:42;37.20;1.00
30865;DHT22;17574;49.418;11.038;2022-08-03T15:08:09;37.30;1.00
30865;DHT22;17574;49.418;11.038;2022-08-03T15:10:36;37.20;1.00
30865;DHT22;17574;49.418;11.038;2022-08-03T15:13:10;36.80;1.00
30865;DHT22;17574;49.418;11.038;2022-08-03T15:15:37;36.90;1.00
30865;DHT22;17574;49.418;11.038;2022-08-03T15:18:04;36.60;1.00
30865;DHT22;17574;49.418;11.038;2022-08-03T15:20:30;36.50;1.00
30865;DHT22;17574;49.418;11.038;2022-08-03T15:23:09;36.40;1.00
30865;DHT22;17574;49.418;11.038;2022-08-03T15:25:35;36.30;1.00
30865;DHT22;17574;49.418;11.038;2022-08-03T15:28:22;36.30;1.00
30865;DHT22;17574;49.418;11.038;2022-08-03T15:30:50;36.00;1.00
30865;DHT22;17574;49.418;11.038;2022-08-03T15:33:17;35.80;1.00
30865;DHT22;17574;49.418;11.038;2022-08-03T15:35:43;35.80;1.00
30865;DHT22;17574;49.418;11.038;2022-08-03T15:38:11;35.90;1.00
30865;DHT22;17574;49.418;11.038;2022-08-03T15:40:38;35.80;1.00
30865;DHT22;17574;49.418;11.038;2022-08-03T15:43:06;35.60;1.00
30865;DHT22;17574;49.418;11.038;2022-08-03T15:45:32;35.60;1.00
30865;DHT22;17574;49.418;11.038;2022-08-03T15:48:02;35.60;1.00
30865;DHT22;17574;49.418;11.038;2022-08-03T15:50:29;35.50;1.00
30865;DHT22;17574;49.418;11.038;2022-08-03T15:52:56;35.60;1.00
30865;DHT22;17574;49.418;11.038;2022-08-03T15:55:22;35.50;1.00
30865;DHT22;17574;49.418;11.038;2022-08-03T15:57:49;35.40;1.00
30865;DHT22;17574;49.418;11.038;2022-08-03T16:00:36;35.40;1.00
30865;DHT22;17574;49.418;11.038;2022-08-03T16:03:02;35.40;1.00
30865;DHT22;17574;49.418;11.038;2022-08-03T16:05:29;35.40;1.00
30865;DHT22;17574;49.418;11.038;2022-08-03T16:07:56;35.20;1.00
30865;DHT22;17574;49.418;11.038;2022-08-03T16:10:28;35.20;1.00
30865;DHT22;17574;49.418;11.038;2022-08-03T16:12:56;35.10;1.00
30865;DHT22;17574;49.418;11.038;2022-08-03T16:15:24;35.20;1.00
30865;DHT22;17574;49.418;11.038;2022-08-03T16:17:51;35.10;1.00
30865;DHT22;17574;49.418;11.038;2022-08-03T16:20:17;35.00;1.00